Time;durP1;ratioP1;P1;durP2;ratioP2;P2;SDS_P1;SDS_P2;PMS_P1;PMS_P2;Temp;Humidity;BMP_temperature;BMP_pressure;BME280_temperature;BME280_humidity;BME280_pressure;Samples;Min_cycle;Max_cycle;Signal;HPM_P1;HPM_P2
2022/07/19 00:00:46;;;;;;;1.63;1.42;;;;;;;;;;4480983;28;23550;-64
2022/07/19 00:02:57;;;;;;;2.60;1.40;;;;;;;;;;4465710;28;20034;-63
2022/07/19 00:05:09;;;;;;;1.70;1.25;;;;;;;;;;4465026;28;20049;-63
2022/07/19 00:07:19;;;;;;;2.20;1.20;;;;;;;;;;4482236;28;20042;-63
2022/07/19 00:09:29;;;;;;;1.67;1.30;;;;;;;;;;4483702;28;20042;-63
2022/07/19 00:12:03;;;;;;;1.90;1.15;;;;;;;;;;4483507;28;20125;-63
2022/07/19 00:14:14;;;;;;;2.00;1.33;;;;;;;;;;4482930;28;20037;-63
2022/07/19 00:16:24;;;;;;;2.33;1.38;;;;;;;;;;4447763;28;20066;-63
2022/07/19 00:18:35;;;;;;;2.30;1.20;;;;;;;;;;4483489;28;20064;-63
2022/07/19 00:20:45;;;;;;;1.75;1.40;;;;;;;;;;4483085;28;20109;-63
2022/07/19 00:22:56;;;;;;;2.65;1.20;;;;;;;;;;4483462;28;20125;-63
2022/07/19 00:25:06;;;;;;;2.50;1.20;;;;;;;;;;4483153;28;20110;-63
2022/07/19 00:27:18;;;;;;;2.20;1.30;;;;;;;;;;4466939;28;20078;-62
2022/07/19 00:29:28;;;;;;;1.67;1.17;;;;;;;;;;4466835;28;20077;-63
2022/07/19 00:31:39;;;;;;;1.75;1.40;;;;;;;;;;4482876;28;23995;-64
2022/07/19 00:33:50;;;;;;;1.77;1.27;;;;;;;;;;4482546;28;20038;-64
2022/07/19 00:36:00;;;;;;;1.98;1.25;;;;;;;;;;4483694;28;20043;-63
2022/07/19 00:38:12;;;;;;;2.60;1.20;;;;;;;;;;4483261;28;20035;-64
2022/07/19 00:40:24;;;;;;;2.20;1.30;;;;;;;;;;4483359;28;20045;-63
2022/07/19 00:42:34;;;;;;;1.85;1.27;;;;;;;;;;4465420;28;20034;-63
2022/07/19 00:44:45;;;;;;;1.83;1.30;;;;;;;;;;4482838;28;20450;-63
2022/07/19 00:46:55;;;;;;;1.15;1.05;;;;;;;;;;4481711;28;20121;-63
2022/07/19 00:49:06;;;;;;;1.98;1.10;;;;;;;;;;4483650;28;20030;-63
2022/07/19 00:51:17;;;;;;;1.95;1.10;;;;;;;;;;4479522;28;20038;-63
2022/07/19 00:53:28;;;;;;;2.22;1.42;;;;;;;;;;4482420;28;20053;-63
2022/07/19 00:55:40;;;;;;;2.40;1.45;;;;;;;;;;4481624;28;20089;-63
2022/07/19 00:57:50;;;;;;;1.95;1.40;;;;;;;;;;4481249;28;20039;-63
2022/07/19 01:00:01;;;;;;;2.22;1.40;;;;;;;;;;4482382;28;20034;-63
2022/07/19 01:02:12;;;;;;;1.55;1.33;;;;;;;;;;4481642;28;20058;-63
2022/07/19 01:04:23;;;;;;;1.83;1.23;;;;;;;;;;4464039;28;20065;-63
2022/07/19 01:06:33;;;;;;;3.30;1.48;;;;;;;;;;4482004;28;20392;-63
2022/07/19 01:08:44;;;;;;;2.55;1.45;;;;;;;;;;4482253;28;20495;-63
2022/07/19 01:10:54;;;;;;;2.33;1.50;;;;;;;;;;4483872;28;20039;-63
2022/07/19 01:13:05;;;;;;;1.90;1.40;;;;;;;;;;4466408;28;20038;-63
2022/07/19 01:15:19;;;;;;;2.67;1.52;;;;;;;;;;4486415;28;20086;-63
2022/07/19 01:17:29;;;;;;;3.13;1.55;;;;;;;;;;4467602;28;20046;-64
2022/07/19 01:19:42;;;;;;;1.73;1.33;;;;;;;;;;4485508;28;20398;-63
2022/07/19 01:21:52;;;;;;;1.70;1.48;;;;;;;;;;4485802;28;20113;-63
2022/07/19 01:24:03;;;;;;;2.10;1.70;;;;;;;;;;4485007;28;20031;-63
2022/07/19 01:26:13;;;;;;;2.25;1.60;;;;;;;;;;4483923;28;20076;-63
2022/07/19 01:28:24;;;;;;;2.67;1.63;;;;;;;;;;4485945;28;20038;-63
2022/07/19 01:30:34;;;;;;;1.70;1.45;;;;;;;;;;4485350;28;20476;-63
2022/07/19 01:32:45;;;;;;;2.70;1.45;;;;;;;;;;4486429;28;20042;-62
2022/07/19 01:34:56;;;;;;;2.40;1.83;;;;;;;;;;4486046;28;20402;-63
2022/07/19 01:37:06;;;;;;;2.05;1.50;;;;;;;;;;4485849;28;20034;-63
2022/07/19 01:39:17;;;;;;;2.38;1.70;;;;;;;;;;4484124;28;20398;-63
2022/07/19 01:41:27;;;;;;;2.20;1.63;;;;;;;;;;4485018;28;20038;-63
2022/07/19 01:43:38;;;;;;;1.85;1.63;;;;;;;;;;4485549;28;20539;-63
2022/07/19 01:45:49;;;;;;;2.00;1.60;;;;;;;;;;4467359;28;20150;-64
2022/07/19 01:48:00;;;;;;;3.13;1.60;;;;;;;;;;4485709;28;20049;-63
2022/07/19 01:50:13;;;;;;;2.05;1.50;;;;;;;;;;4484071;28;20031;-64
2022/07/19 01:52:23;;;;;;;1.83;1.50;;;;;;;;;;4462472;28;20078;-63
2022/07/19 01:54:34;;;;;;;2.15;1.50;;;;;;;;;;4468360;28;20550;-66
2022/07/19 01:56:44;;;;;;;3.42;1.50;;;;;;;;;;4485551;28;20034;-65
2022/07/19 01:58:55;;;;;;;1.88;1.50;;;;;;;;;;4485555;28;20544;-64
2022/07/19 02:01:05;;;;;;;1.98;1.50;;;;;;;;;;4462892;28;20035;-66
2022/07/19 02:03:17;;;;;;;2.53;1.55;;;;;;;;;;4485259;28;20030;-65
2022/07/19 02:05:28;;;;;;;2.20;1.70;;;;;;;;;;4484379;28;20034;-64
2022/07/19 02:07:39;;;;;;;2.75;1.77;;;;;;;;;;4485262;28;20038;-68
2022/07/19 02:09:49;;;;;;;2.72;1.60;;;;;;;;;;4485030;28;20109;-64
2022/07/19 02:12:00;;;;;;;2.60;1.52;;;;;;;;;;4486101;28;20126;-63
2022/07/19 02:14:10;;;;;;;2.05;1.50;;;;;;;;;;4466885;28;20042;-63
2022/07/19 02:16:21;;;;;;;2.90;1.52;;;;;;;;;;4485891;28;20593;-63
2022/07/19 02:18:32;;;;;;;2.30;1.60;;;;;;;;;;4469316;28;20042;-63
2022/07/19 02:20:42;;;;;;;2.38;1.60;;;;;;;;;;4484591;28;20109;-63
2022/07/19 02:22:53;;;;;;;2.63;1.60;;;;;;;;;;4484329;28;20038;-64
2022/07/19 02:25:04;;;;;;;1.85;1.48;;;;;;;;;;4485528;28;20446;-64
2022/07/19 02:27:14;;;;;;;2.00;1.50;;;;;;;;;;4484304;28;20490;-63
2022/07/19 02:29:25;;;;;;;2.25;1.80;;;;;;;;;;4462963;28;20035;-63
2022/07/19 02:31:35;;;;;;;1.98;1.60;;;;;;;;;;4484435;28;20042;-64
2022/07/19 02:33:46;;;;;;;2.05;1.65;;;;;;;;;;4485133;28;20029;-63
2022/07/19 02:35:56;;;;;;;3.08;1.88;;;;;;;;;;4484804;28;20038;-63
2022/07/19 02:38:06;;;;;;;1.67;1.50;;;;;;;;;;4484146;28;20041;-64
2022/07/19 02:40:17;;;;;;;2.35;1.60;;;;;;;;;;4483807;28;20514;-63
2022/07/19 02:42:27;;;;;;;2.35;1.70;;;;;;;;;;4485021;28;20516;-64
2022/07/19 02:44:38;;;;;;;2.13;1.60;;;;;;;;;;4485124;28;20392;-63
2022/07/19 02:46:48;;;;;;;2.53;1.40;;;;;;;;;;4484582;28;20043;-63
2022/07/19 02:48:59;;;;;;;2.83;1.73;;;;;;;;;;4485018;28;20050;-63
2022/07/19 02:51:11;;;;;;;2.17;1.70;;;;;;;;;;4484178;28;20035;-63
2022/07/19 02:53:21;;;;;;;2.83;1.75;;;;;;;;;;4484790;28;20593;-64
2022/07/19 02:55:32;;;;;;;2.75;1.77;;;;;;;;;;4484781;28;20034;-64
2022/07/19 02:57:42;;;;;;;3.47;2.00;;;;;;;;;;4485039;28;20034;-63
2022/07/19 02:59:53;;;;;;;1.63;1.45;;;;;;;;;;4484310;28;20070;-64
2022/07/19 03:02:03;;;;;;;2.13;1.60;;;;;;;;;;4484948;28;20038;-64
2022/07/19 03:04:14;;;;;;;1.90;1.42;;;;;;;;;;4484711;28;20077;-63
2022/07/19 03:06:24;;;;;;;2.42;1.70;;;;;;;;;;4482797;28;20046;-64
2022/07/19 03:08:35;;;;;;;2.08;1.60;;;;;;;;;;4484514;28;20073;-63
2022/07/19 03:10:45;;;;;;;2.47;1.60;;;;;;;;;;4460729;28;23634;-64
2022/07/19 03:12:55;;;;;;;2.85;1.77;;;;;;;;;;4484914;28;20053;-63
2022/07/19 03:15:06;;;;;;;2.40;1.50;;;;;;;;;;4466945;28;20067;-63
2022/07/19 03:17:17;;;;;;;2.47;1.60;;;;;;;;;;4465913;28;20090;-63
2022/07/19 03:19:27;;;;;;;1.95;1.40;;;;;;;;;;4484627;28;20054;-64
2022/07/19 03:21:38;;;;;;;2.38;1.80;;;;;;;;;;4483975;28;20545;-63
2022/07/19 03:23:48;;;;;;;2.10;1.73;;;;;;;;;;4484089;28;20065;-64
2022/07/19 03:25:59;;;;;;;2.65;1.88;;;;;;;;;;4482853;28;20046;-63
2022/07/19 03:28:10;;;;;;;4.32;1.55;;;;;;;;;;4483657;28;20030;-63
2022/07/19 03:30:21;;;;;;;3.03;1.60;;;;;;;;;;4483714;28;20057;-63
2022/07/19 03:32:31;;;;;;;2.33;1.58;;;;;;;;;;4484070;28;20034;-63
2022/07/19 03:34:43;;;;;;;2.97;1.83;;;;;;;;;;4483323;28;20035;-63
2022/07/19 03:36:54;;;;;;;2.67;1.90;;;;;;;;;;4483779;28;20038;-64
2022/07/19 03:39:05;;;;;;;2.30;1.60;;;;;;;;;;4482961;28;20185;-63
2022/07/19 03:41:16;;;;;;;2.83;1.70;;;;;;;;;;4483863;28;20365;-64
2022/07/19 03:43:26;;;;;;;2.28;1.70;;;;;;;;;;4484412;28;20026;-64
2022/07/19 03:45:36;;;;;;;1.80;1.60;;;;;;;;;;4484897;28;20049;-64
2022/07/19 03:47:47;;;;;;;1.92;1.50;;;;;;;;;;4484707;28;20058;-64
2022/07/19 03:49:58;;;;;;;1.92;1.70;;;;;;;;;;4483943;28;20594;-64
2022/07/19 03:52:08;;;;;;;1.83;1.48;;;;;;;;;;4453824;28;20416;-64
2022/07/19 03:54:18;;;;;;;2.97;1.67;;;;;;;;;;4484603;28;20045;-64
2022/07/19 03:56:29;;;;;;;1.83;1.40;;;;;;;;;;4483019;28;20483;-64
2022/07/19 03:58:39;;;;;;;2.03;1.60;;;;;;;;;;4465211;28;20470;-64
2022/07/19 04:00:50;;;;;;;1.60;1.40;;;;;;;;;;4466534;28;20038;-64
2022/07/19 04:03:00;;;;;;;2.15;1.40;;;;;;;;;;4485145;28;20066;-64
2022/07/19 04:05:11;;;;;;;2.38;1.40;;;;;;;;;;4484266;28;20042;-64
2022/07/19 04:07:22;;;;;;;1.75;1.40;;;;;;;;;;4466152;28;20058;-64
2022/07/19 04:09:32;;;;;;;1.88;1.58;;;;;;;;;;4465234;28;20078;-64
2022/07/19 04:11:43;;;;;;;3.25;1.60;;;;;;;;;;4483644;28;20093;-64
2022/07/19 04:13:53;;;;;;;2.20;1.50;;;;;;;;;;4484571;28;20572;-64
2022/07/19 04:16:04;;;;;;;2.22;1.50;;;;;;;;;;4484203;28;20046;-64
2022/07/19 04:18:15;;;;;;;2.05;1.50;;;;;;;;;;4484899;28;20126;-64
2022/07/19 04:20:25;;;;;;;2.15;1.40;;;;;;;;;;4482585;28;20042;-64
2022/07/19 04:22:36;;;;;;;2.60;1.50;;;;;;;;;;4483346;28;20030;-64
2022/07/19 04:24:46;;;;;;;1.67;1.50;;;;;;;;;;4484768;28;20503;-64
2022/07/19 04:26:57;;;;;;;2.83;1.55;;;;;;;;;;4484063;28;20096;-64
2022/07/19 04:29:07;;;;;;;2.17;1.40;;;;;;;;;;4483453;28;20497;-64
2022/07/19 04:31:18;;;;;;;2.08;1.70;;;;;;;;;;4483545;28;20041;-64
2022/07/19 04:33:28;;;;;;;2.15;1.30;;;;;;;;;;4483676;28;20397;-64
2022/07/19 04:35:39;;;;;;;2.30;1.50;;;;;;;;;;4481904;28;20487;-64
2022/07/19 04:37:49;;;;;;;2.60;1.70;;;;;;;;;;4483213;28;20054;-64
2022/07/19 04:39:59;;;;;;;2.30;1.40;;;;;;;;;;4483430;28;20382;-64
2022/07/19 04:42:10;;;;;;;2.60;1.65;;;;;;;;;;4451026;28;20031;-64
2022/07/19 04:44:20;;;;;;;2.38;1.90;;;;;;;;;;4484241;28;20045;-64
2022/07/19 04:46:31;;;;;;;2.90;1.52;;;;;;;;;;4463042;28;20133;-64
2022/07/19 04:48:41;;;;;;;2.47;1.67;;;;;;;;;;4486865;28;20137;-65
2022/07/19 04:50:52;;;;;;;2.20;1.50;;;;;;;;;;4485752;28;20073;-63
2022/07/19 04:53:02;;;;;;;1.73;1.42;;;;;;;;;;4487057;28;20038;-64
2022/07/19 04:55:13;;;;;;;2.65;1.70;;;;;;;;;;4455745;28;20027;-64
2022/07/19 04:57:23;;;;;;;2.88;1.60;;;;;;;;;;4486713;28;20034;-64
2022/07/19 04:59:34;;;;;;;2.72;1.60;;;;;;;;;;4486964;28;20486;-64
2022/07/19 05:01:44;;;;;;;2.10;1.50;;;;;;;;;;4487089;28;20042;-64
2022/07/19 05:03:55;;;;;;;1.92;1.45;;;;;;;;;;4464941;28;20408;-64
2022/07/19 05:06:05;;;;;;;2.65;1.70;;;;;;;;;;4486531;28;20455;-65
2022/07/19 05:08:17;;;;;;;2.08;1.60;;;;;;;;;;4487028;28;20542;-64
2022/07/19 05:10:27;;;;;;;1.85;1.38;;;;;;;;;;4486690;28;20030;-64
2022/07/19 05:12:39;;;;;;;1.80;1.50;;;;;;;;;;4466709;28;26400;-63
2022/07/19 05:14:49;;;;;;;2.10;1.65;;;;;;;;;;4468498;28;20047;-61
2022/07/19 05:17:00;;;;;;;2.20;1.65;;;;;;;;;;4484952;28;20031;-61
2022/07/19 05:19:10;;;;;;;2.95;1.85;;;;;;;;;;4485829;28;20557;-61
2022/07/19 05:21:20;;;;;;;2.28;1.70;;;;;;;;;;4485356;28;20034;-61
2022/07/19 05:23:31;;;;;;;2.45;1.63;;;;;;;;;;4485334;28;20038;-60
2022/07/19 05:25:42;;;;;;;2.22;1.70;;;;;;;;;;4467791;28;20051;-61
2022/07/19 05:27:52;;;;;;;2.67;1.70;;;;;;;;;;4485830;28;20034;-61
2022/07/19 05:30:04;;;;;;;2.03;1.67;;;;;;;;;;4484848;28;20073;-64
2022/07/19 05:32:14;;;;;;;2.53;1.60;;;;;;;;;;4467541;28;20587;-65
2022/07/19 05:34:25;;;;;;;2.05;1.50;;;;;;;;;;4483255;28;20121;-66
2022/07/19 05:36:35;;;;;;;1.40;1.30;;;;;;;;;;4483775;28;28181;-67
2022/07/19 05:38:46;;;;;;;1.63;1.50;;;;;;;;;;4469410;28;20035;-65
2022/07/19 05:40:56;;;;;;;1.80;1.50;;;;;;;;;;4485304;28;20175;-65
2022/07/19 05:43:06;;;;;;;2.50;1.35;;;;;;;;;;4485716;28;20137;-65
2022/07/19 05:45:17;;;;;;;1.48;1.30;;;;;;;;;;4486151;28;20030;-65
2022/07/19 05:47:27;;;;;;;2.15;1.35;;;;;;;;;;4485616;28;20595;-64
2022/07/19 05:49:38;;;;;;;2.03;1.48;;;;;;;;;;4485974;28;20026;-65
2022/07/19 05:51:48;;;;;;;1.80;1.17;;;;;;;;;;4464876;28;20061;-65
2022/07/19 05:54:00;;;;;;;1.80;1.30;;;;;;;;;;4486033;28;20029;-65
2022/07/19 05:56:11;;;;;;;2.85;1.20;;;;;;;;;;4485641;28;20121;-64
2022/07/19 05:58:22;;;;;;;2.60;1.30;;;;;;;;;;4459224;28;20034;-65
2022/07/19 06:00:32;;;;;;;1.63;1.40;;;;;;;;;;4467331;28;20149;-65
2022/07/19 06:02:43;;;;;;;1.45;1.20;;;;;;;;;;4485803;28;20033;-65
2022/07/19 06:04:53;;;;;;;2.13;1.23;;;;;;;;;;4485300;28;20861;-64
2022/07/19 06:07:04;;;;;;;2.42;1.40;;;;;;;;;;4485505;28;20463;-64
2022/07/19 06:09:15;;;;;;;2.13;1.20;;;;;;;;;;4485605;28;20092;-65
2022/07/19 06:11:26;;;;;;;2.90;1.42;;;;;;;;;;4485507;28;20061;-65
2022/07/19 06:13:37;;;;;;;2.03;1.40;;;;;;;;;;4485456;28;20570;-65
2022/07/19 06:15:49;;;;;;;1.65;1.25;;;;;;;;;;4485423;28;20022;-64
2022/07/19 06:18:00;;;;;;;2.00;1.30;;;;;;;;;;4485486;28;20035;-64
2022/07/19 06:20:10;;;;;;;1.80;1.30;;;;;;;;;;4468724;28;20027;-64
2022/07/19 06:22:21;;;;;;;3.03;1.30;;;;;;;;;;4484930;28;20042;-65
2022/07/19 06:24:32;;;;;;;2.25;1.30;;;;;;;;;;4485117;28;20121;-65
2022/07/19 06:26:42;;;;;;;1.83;1.30;;;;;;;;;;4468750;28;20147;-64
2022/07/19 06:28:53;;;;;;;1.70;1.20;;;;;;;;;;4484733;28;20506;-65
2022/07/19 06:31:04;;;;;;;3.00;1.38;;;;;;;;;;4466830;28;20023;-65
2022/07/19 06:33:15;;;;;;;1.90;1.10;;;;;;;;;;4467037;28;20039;-66
2022/07/19 06:35:25;;;;;;;1.83;1.40;;;;;;;;;;4483080;28;20053;-65
2022/07/19 06:37:36;;;;;;;2.10;1.40;;;;;;;;;;4483790;28;20033;-65
2022/07/19 06:39:47;;;;;;;1.42;1.20;;;;;;;;;;4484145;28;20039;-65
2022/07/19 06:41:58;;;;;;;2.00;1.40;;;;;;;;;;4485201;28;20030;-66
2022/07/19 06:44:09;;;;;;;2.08;1.38;;;;;;;;;;4468545;28;20418;-65
2022/07/19 06:46:19;;;;;;;2.55;1.40;;;;;;;;;;4485159;28;20190;-65
2022/07/19 06:48:30;;;;;;;1.38;1.20;;;;;;;;;;4485237;28;20038;-65
2022/07/19 06:50:40;;;;;;;1.48;1.15;;;;;;;;;;4483879;28;20030;-65
2022/07/19 06:52:51;;;;;;;1.65;1.30;;;;;;;;;;4484218;28;20060;-65
2022/07/19 06:55:01;;;;;;;2.45;1.30;;;;;;;;;;4483468;28;20117;-67
2022/07/19 06:57:12;;;;;;;2.78;1.63;;;;;;;;;;4483654;28;20037;-66
2022/07/19 06:59:22;;;;;;;1.40;1.27;;;;;;;;;;4484863;28;20443;-66
2022/07/19 07:01:33;;;;;;;2.22;1.40;;;;;;;;;;4484774;28;20072;-65
2022/07/19 07:03:43;;;;;;;1.40;1.30;;;;;;;;;;4484708;28;20038;-65
2022/07/19 07:05:54;;;;;;;1.70;1.20;;;;;;;;;;4461317;28;20499;-65
2022/07/19 07:08:05;;;;;;;1.50;1.25;;;;;;;;;;4482875;28;20048;-65
2022/07/19 07:10:15;;;;;;;1.98;1.20;;;;;;;;;;4466731;28;20539;-65
2022/07/19 07:12:25;;;;;;;2.13;1.20;;;;;;;;;;4484416;28;20554;-65
2022/07/19 07:14:36;;;;;;;1.58;1.35;;;;;;;;;;4483900;28;20570;-65
2022/07/19 07:16:46;;;;;;;1.58;1.20;;;;;;;;;;4483892;28;20562;-66
2022/07/19 07:18:57;;;;;;;1.80;1.30;;;;;;;;;;4461136;28;20100;-65
2022/07/19 07:21:07;;;;;;;1.30;1.20;;;;;;;;;;4483669;28;20026;-65
2022/07/19 07:23:19;;;;;;;1.85;1.10;;;;;;;;;;4468398;28;20038;-65
2022/07/19 07:25:30;;;;;;;1.75;1.30;;;;;;;;;;4484632;28;20042;-65
2022/07/19 07:27:40;;;;;;;1.52;1.17;;;;;;;;;;4482962;28;20034;-65
2022/07/19 07:29:51;;;;;;;1.20;1.00;;;;;;;;;;4483880;28;20109;-65
2022/07/19 07:32:01;;;;;;;1.42;1.30;;;;;;;;;;4467699;28;20047;-66
2022/07/19 07:34:12;;;;;;;1.20;1.10;;;;;;;;;;4484741;28;20060;-67
2022/07/19 07:36:22;;;;;;;1.50;1.20;;;;;;;;;;4485027;28;20034;-66
2022/07/19 07:38:33;;;;;;;1.70;1.13;;;;;;;;;;4482962;28;20563;-66
2022/07/19 07:40:43;;;;;;;1.20;1.10;;;;;;;;;;4484244;28;20038;-66
2022/07/19 07:42:54;;;;;;;1.45;1.10;;;;;;;;;;4484112;28;20125;-65
2022/07/19 07:45:07;;;;;;;1.25;1.10;;;;;;;;;;4483659;28;20042;-67
2022/07/19 07:47:17;;;;;;;2.00;1.17;;;;;;;;;;4483125;28;20046;-65
2022/07/19 07:49:29;;;;;;;1.35;1.10;;;;;;;;;;4482734;28;20039;-66
2022/07/19 07:51:40;;;;;;;1.42;1.05;;;;;;;;;;4482893;28;20027;-63
2022/07/19 07:53:51;;;;;;;1.55;1.20;;;;;;;;;;4482412;28;20034;-64
2022/07/19 07:56:01;;;;;;;1.55;1.23;;;;;;;;;;4482431;28;20038;-64
2022/07/19 07:58:12;;;;;;;1.60;1.25;;;;;;;;;;4466381;28;20117;-64
2022/07/19 08:00:23;;;;;;;2.80;1.30;;;;;;;;;;4482696;28;20609;-64
2022/07/19 08:02:40;;;;;;;1.30;1.20;;;;;;;;;;4483449;28;20510;-64
2022/07/19 08:04:51;;;;;;;1.20;1.10;;;;;;;;;;4482569;28;20426;-64
2022/07/19 08:07:01;;;;;;;1.45;1.17;;;;;;;;;;4484362;28;20047;-64
2022/07/19 08:09:12;;;;;;;0.98;0.93;;;;;;;;;;4482130;28;20033;-65
2022/07/19 08:11:22;;;;;;;1.73;1.15;;;;;;;;;;4483489;28;20116;-65
2022/07/19 08:13:33;;;;;;;1.38;1.20;;;;;;;;;;4484268;28;20049;-65
2022/07/19 08:15:43;;;;;;;1.98;1.35;;;;;;;;;;4482647;28;20042;-65
2022/07/19 08:17:54;;;;;;;1.55;1.17;;;;;;;;;;4462639;28;20031;-65
2022/07/19 08:20:05;;;;;;;1.95;1.20;;;;;;;;;;4482605;28;20046;-66
2022/07/19 08:22:16;;;;;;;1.58;1.40;;;;;;;;;;4483300;28;20031;-65
2022/07/19 08:24:26;;;;;;;2.15;1.20;;;;;;;;;;4483044;28;20126;-65
2022/07/19 08:26:37;;;;;;;2.30;1.30;;;;;;;;;;4481297;28;20491;-65
2022/07/19 08:28:48;;;;;;;1.60;1.13;;;;;;;;;;4483341;28;20058;-65
2022/07/19 08:30:59;;;;;;;1.17;1.00;;;;;;;;;;4483194;28;20042;-65
2022/07/19 08:33:09;;;;;;;1.45;1.17;;;;;;;;;;4482557;28;20022;-64
2022/07/19 08:35:20;;;;;;;1.40;1.10;;;;;;;;;;4483286;28;20483;-64
2022/07/19 08:37:30;;;;;;;1.40;1.15;;;;;;;;;;4465494;28;20043;-65
2022/07/19 08:39:41;;;;;;;2.35;1.30;;;;;;;;;;4482365;28;20083;-64
2022/07/19 08:41:51;;;;;;;2.95;1.17;;;;;;;;;;4482910;28;20042;-64
2022/07/19 08:44:04;;;;;;;2.28;1.20;;;;;;;;;;4481182;28;20026;-64
2022/07/19 08:46:14;;;;;;;1.48;1.20;;;;;;;;;;4482539;28;20571;-65
2022/07/19 08:48:25;;;;;;;1.42;1.10;;;;;;;;;;4483069;28;20065;-64
2022/07/19 08:50:35;;;;;;;1.40;1.10;;;;;;;;;;4483024;28;20051;-65
2022/07/19 08:52:46;;;;;;;1.13;1.02;;;;;;;;;;4482750;28;20089;-65
2022/07/19 08:54:56;;;;;;;1.25;1.00;;;;;;;;;;4480865;28;22903;-65
2022/07/19 08:59:36;;;;;;;1.20;1.10;;;;;;;;;;4482917;28;21354;-65
2022/07/19 09:01:46;;;;;;;1.60;1.17;;;;;;;;;;4465628;28;20139;-65
2022/07/19 09:04:06;;;;;;;0.93;0.90;;;;;;;;;;4482724;28;20030;-65
2022/07/19 09:06:16;;;;;;;1.63;1.10;;;;;;;;;;4461868;28;20052;-64
2022/07/19 09:08:27;;;;;;;1.98;1.27;;;;;;;;;;4480771;28;20038;-64
2022/07/19 09:10:40;;;;;;;1.17;1.02;;;;;;;;;;4456844;28;20040;-64
2022/07/19 09:13:02;;;;;;;0.98;0.88;;;;;;;;;;4482050;28;20047;-64
2022/07/19 09:15:12;;;;;;;1.45;1.00;;;;;;;;;;4450035;28;20034;-64
2022/07/19 09:17:28;;;;;;;1.45;1.00;;;;;;;;;;4481758;28;20035;-64
2022/07/19 09:19:41;;;;;;;1.02;0.93;;;;;;;;;;4465753;28;20039;-64
2022/07/19 09:21:57;;;;;;;0.93;0.80;;;;;;;;;;4463939;28;20051;-64
2022/07/19 09:24:09;;;;;;;0.90;0.90;;;;;;;;;;4481513;28;20027;-64
2022/07/19 09:26:19;;;;;;;1.70;1.15;;;;;;;;;;4458704;28;20046;-64
2022/07/19 09:28:33;;;;;;;1.10;1.00;;;;;;;;;;4481748;28;21661;-65
2022/07/19 09:30:46;;;;;;;1.73;1.00;;;;;;;;;;4481200;28;20046;-64
2022/07/19 09:33:12;;;;;;;1.10;1.00;;;;;;;;;;4483531;28;20034;-64
2022/07/19 09:35:35;;;;;;;1.33;1.00;;;;;;;;;;4462306;28;20054;-64
2022/07/19 09:37:45;;;;;;;1.10;1.00;;;;;;;;;;4484820;28;20490;-64
2022/07/19 09:39:58;;;;;;;1.08;0.90;;;;;;;;;;4484749;28;20113;-65
2022/07/19 09:42:09;;;;;;;1.30;1.10;;;;;;;;;;4483510;28;20645;-73
2022/07/19 09:44:21;;;;;;;2.60;1.02;;;;;;;;;;4485216;28;20039;-73
2022/07/19 09:46:33;;;;;;;1.92;1.20;;;;;;;;;;4485216;28;20047;-69
2022/07/19 09:48:43;;;;;;;2.42;1.10;;;;;;;;;;4468452;28;20662;-63
2022/07/19 09:50:54;;;;;;;2.85;1.20;;;;;;;;;;4484910;28;20336;-68
2022/07/19 09:53:05;;;;;;;1.70;1.15;;;;;;;;;;4467154;28;20071;-61
2022/07/19 09:55:17;;;;;;;2.33;1.00;;;;;;;;;;4482763;28;20121;-60
2022/07/19 09:57:29;;;;;;;1.73;1.13;;;;;;;;;;4484019;28;20048;-61
2022/07/19 09:59:47;;;;;;;1.38;1.00;;;;;;;;;;4484036;28;20189;-62
2022/07/19 10:01:58;;;;;;;1.85;1.17;;;;;;;;;;4466438;28;20050;-63
2022/07/19 10:04:13;;;;;;;2.03;1.10;;;;;;;;;;4483037;28;20492;-62
2022/07/19 10:06:25;;;;;;;2.00;1.03;;;;;;;;;;4468645;28;20133;-62
2022/07/19 10:08:36;;;;;;;1.77;0.95;;;;;;;;;;4466860;28;21321;-62
2022/07/19 10:10:46;;;;;;;2.38;1.05;;;;;;;;;;4484803;28;20101;-62
2022/07/19 10:12:57;;;;;;;1.63;1.38;;;;;;;;;;4482622;28;20046;-62
2022/07/19 10:15:10;;;;;;;0.82;0.82;;;;;;;;;;4466646;28;20039;-61
2022/07/19 10:17:21;;;;;;;0.80;0.77;;;;;;;;;;4466139;28;20610;-62
2022/07/19 10:19:41;;;;;;;1.40;0.90;;;;;;;;;;4484307;28;20045;-62
2022/07/19 10:21:53;;;;;;;1.10;1.00;;;;;;;;;;4485456;28;20034;-62
2022/07/19 10:24:04;;;;;;;1.20;0.82;;;;;;;;;;4485622;28;20906;-62
2022/07/19 10:26:33;;;;;;;1.33;1.00;;;;;;;;;;4467394;28;20055;-61
2022/07/19 10:28:44;;;;;;;1.00;0.90;;;;;;;;;;4486277;28;20045;-62
2022/07/19 10:30:55;;;;;;;1.60;1.00;;;;;;;;;;4486369;28;20048;-62
2022/07/19 10:33:26;;;;;;;1.00;0.90;;;;;;;;;;4484601;28;20113;-62
2022/07/19 10:35:38;;;;;;;1.35;1.10;;;;;;;;;;4485990;28;20046;-62
2022/07/19 10:37:51;;;;;;;1.23;1.00;;;;;;;;;;4484819;28;20521;-62
2022/07/19 10:40:01;;;;;;;1.42;1.00;;;;;;;;;;4484973;28;20042;-62
2022/07/19 10:42:17;;;;;;;1.45;0.90;;;;;;;;;;4467720;28;20043;-62
2022/07/19 10:44:28;;;;;;;1.10;0.90;;;;;;;;;;4459615;28;20081;-62
2022/07/19 10:46:46;;;;;;;1.02;0.93;;;;;;;;;;4485891;28;20070;-62
2022/07/19 10:48:59;;;;;;;1.20;0.77;;;;;;;;;;4484075;28;20073;-62
2022/07/19 10:51:27;;;;;;;1.63;0.90;;;;;;;;;;4484703;28;20043;-61
2022/07/19 10:53:41;;;;;;;0.95;0.80;;;;;;;;;;4485852;28;20069;-62
2022/07/19 10:56:18;;;;;;;1.25;0.90;;;;;;;;;;4485170;28;20030;-62
2022/07/19 10:58:50;;;;;;;1.02;0.90;;;;;;;;;;4461339;28;20047;-62
2022/07/19 11:01:14;;;;;;;1.08;0.80;;;;;;;;;;4459340;28;20042;-62
2022/07/19 11:03:28;;;;;;;1.45;1.00;;;;;;;;;;4483651;28;20038;-62
2022/07/19 11:05:46;;;;;;;1.77;0.93;;;;;;;;;;4484630;28;20861;-62
2022/07/19 11:07:57;;;;;;;1.40;0.90;;;;;;;;;;4483163;28;20093;-61
2022/07/19 11:10:07;;;;;;;2.20;0.98;;;;;;;;;;4484480;28;20097;-61
2022/07/19 11:12:24;;;;;;;0.95;0.80;;;;;;;;;;4485044;28;20053;-62
2022/07/19 11:14:42;;;;;;;0.80;0.80;;;;;;;;;;4483987;28;20057;-63
2022/07/19 11:17:00;;;;;;;1.48;0.90;;;;;;;;;;4485794;28;20042;-62
2022/07/19 11:19:10;;;;;;;1.25;0.90;;;;;;;;;;4483875;28;20038;-62
2022/07/19 11:21:21;;;;;;;1.25;0.80;;;;;;;;;;4483952;28;20034;-63
2022/07/19 11:23:34;;;;;;;1.10;0.80;;;;;;;;;;4484959;28;20573;-63
2022/07/19 11:25:46;;;;;;;1.25;0.90;;;;;;;;;;4484953;28;20072;-63
2022/07/19 11:27:58;;;;;;;1.02;0.82;;;;;;;;;;4466715;28;20078;-64
2022/07/19 11:30:10;;;;;;;0.85;0.80;;;;;;;;;;4460330;28;20083;-63
2022/07/19 11:32:20;;;;;;;1.00;0.90;;;;;;;;;;4484926;28;20038;-63
2022/07/19 11:34:31;;;;;;;0.80;0.80;;;;;;;;;;4465990;28;20042;-63
2022/07/19 11:36:41;;;;;;;1.38;1.00;;;;;;;;;;4484616;28;20072;-63
2022/07/19 11:38:54;;;;;;;1.00;0.80;;;;;;;;;;4485218;28;20072;-63
2022/07/19 11:41:27;;;;;;;1.67;0.73;;;;;;;;;;4484771;28;20534;-63
2022/07/19 11:43:38;;;;;;;1.17;0.80;;;;;;;;;;4485070;28;20050;-63
2022/07/19 11:45:49;;;;;;;0.70;0.70;;;;;;;;;;4485389;28;20042;-63
2022/07/19 11:48:00;;;;;;;0.80;0.75;;;;;;;;;;4441130;28;20043;-63
2022/07/19 11:50:13;;;;;;;1.10;0.70;;;;;;;;;;4484326;28;20264;-63
2022/07/19 11:52:23;;;;;;;1.67;0.95;;;;;;;;;;4485040;28;20965;-61
2022/07/19 11:54:34;;;;;;;0.90;0.70;;;;;;;;;;4484680;28;20026;-62
2022/07/19 11:56:44;;;;;;;1.13;0.70;;;;;;;;;;4484663;28;20043;-61
2022/07/19 11:58:57;;;;;;;1.30;0.82;;;;;;;;;;4485295;28;20046;-61
2022/07/19 12:01:07;;;;;;;0.90;0.68;;;;;;;;;;4485097;28;20034;-64
2022/07/19 12:03:19;;;;;;;1.02;0.70;;;;;;;;;;4451967;28;20539;-63
2022/07/19 12:05:32;;;;;;;0.90;0.70;;;;;;;;;;4484025;28;20137;-62
2022/07/19 12:07:49;;;;;;;1.00;0.70;;;;;;;;;;4483567;28;20038;-62
2022/07/19 12:10:00;;;;;;;2.15;0.77;;;;;;;;;;4484833;28;20042;-62
2022/07/19 12:12:16;;;;;;;0.98;0.70;;;;;;;;;;4483885;28;20065;-62
2022/07/19 12:14:34;;;;;;;0.95;0.75;;;;;;;;;;4467212;28;20042;-62
2022/07/19 12:16:45;;;;;;;0.80;0.70;;;;;;;;;;4484845;28;20129;-63
2022/07/19 12:18:57;;;;;;;0.68;0.68;;;;;;;;;;4483244;28;20087;-63
2022/07/19 12:21:22;;;;;;;0.63;0.63;;;;;;;;;;4485308;28;20038;-62
2022/07/19 12:23:33;;;;;;;0.70;0.65;;;;;;;;;;4484614;28;20041;-62
2022/07/19 12:25:43;;;;;;;1.00;0.70;;;;;;;;;;4483676;28;20054;-63
2022/07/19 12:28:00;;;;;;;0.70;0.70;;;;;;;;;;4462243;28;20366;-64
2022/07/19 12:30:19;;;;;;;0.95;0.75;;;;;;;;;;4484837;28;20066;-63
2022/07/19 12:32:43;;;;;;;0.90;0.63;;;;;;;;;;4484328;28;20031;-64
2022/07/19 12:34:57;;;;;;;0.70;0.68;;;;;;;;;;4451667;28;20035;-63
2022/07/19 12:37:28;;;;;;;2.05;0.70;;;;;;;;;;4482429;28;20438;-63
2022/07/19 12:39:39;;;;;;;0.80;0.70;;;;;;;;;;4483711;28;20046;-63
2022/07/19 12:42:08;;;;;;;0.73;0.65;;;;;;;;;;4464826;28;20026;-63
2022/07/19 12:44:18;;;;;;;0.70;0.70;;;;;;;;;;4484651;28;20038;-63
2022/07/19 12:46:29;;;;;;;0.90;0.65;;;;;;;;;;4484668;28;20050;-62
2022/07/19 12:48:39;;;;;;;0.60;0.60;;;;;;;;;;4484180;28;20589;-62
2022/07/19 12:50:51;;;;;;;0.77;0.70;;;;;;;;;;4483983;28;20507;-62
2022/07/19 12:53:20;;;;;;;0.57;0.57;;;;;;;;;;4480868;28;20034;-62
2022/07/19 12:55:44;;;;;;;1.17;0.65;;;;;;;;;;4482696;28;20610;-63
2022/07/19 12:57:56;;;;;;;0.65;0.50;;;;;;;;;;4481835;28;20592;-62
2022/07/19 13:03:45;;;;;;;0.70;0.70;;;;;;;;;;4475035;28;20050;-63
2022/07/19 13:05:55;;;;;;;0.95;0.63;;;;;;;;;;4440022;28;20063;-63
2022/07/19 13:08:06;;;;;;;0.50;0.50;;;;;;;;;;4483415;28;20045;-63
2022/07/19 13:10:17;;;;;;;1.63;0.63;;;;;;;;;;4484415;28;20034;-62
2022/07/19 13:22:36;;;;;;;0.70;0.70;;;;;;;;;;4431509;28;20712;-62
2022/07/19 13:35:01;;;;;;;1.58;0.60;;;;;;;;;;4482973;28;20046;-61
2022/07/19 13:37:27;;;;;;;0.80;0.70;;;;;;;;;;4485093;28;20031;-62